Time;durP1;ratioP1;P1;durP2;ratioP2;P2;SDS_P1;SDS_P2;PMS_P1;PMS_P2;Temp;Humidity;BMP_temperature;BMP_pressure;BME280_temperature;BME280_humidity;BME280_pressure;Samples;Min_cycle;Max_cycle;Signal;HPM_P1;HPM_P2
2024/01/09 00:01:24;;;;;;;11.93;6.47;;;;;;;-7.10;83.26;103015.31;6194590;23;20453;-87
2024/01/09 00:03:50;;;;;;;10.63;4.63;;;;;;;-7.04;83.57;103013.41;6194170;23;20665;-86
2024/01/09 00:06:19;;;;;;;8.67;4.90;;;;;;;-7.02;83.82;103014.47;6193695;23;20030;-87
2024/01/09 00:08:46;;;;;;;9.60;5.07;;;;;;;-7.08;83.45;103016.41;6217427;23;20071;-88
2024/01/09 00:11:13;;;;;;;10.33;4.30;;;;;;;-7.07;84.54;103005.47;6215753;23;20055;-86
2024/01/09 00:13:41;;;;;;;6.37;4.93;;;;;;;-7.12;84.67;103005.00;6218166;23;20070;-87
2024/01/09 00:16:08;;;;;;;9.00;4.60;;;;;;;-7.12;84.28;103002.44;6189748;23;20139;-85
2024/01/09 00:18:35;;;;;;;10.53;4.73;;;;;;;-7.14;84.44;103003.97;6191525;23;20491;-86
2024/01/09 00:21:01;;;;;;;12.37;4.77;;;;;;;-7.16;84.72;103000.34;6215051;23;20023;-87
2024/01/09 00:23:28;;;;;;;9.43;4.60;;;;;;;-7.16;85.30;103000.34;6215744;23;20414;-88
2024/01/09 00:25:55;;;;;;;9.33;4.17;;;;;;;-7.21;85.72;102988.81;6190688;23;20033;-85
2024/01/09 00:28:22;;;;;;;10.07;4.70;;;;;;;-7.19;85.59;102988.22;6191611;23;20480;-86
2024/01/09 00:30:49;;;;;;;8.03;4.43;;;;;;;-7.18;85.89;102991.69;6191387;23;20080;-88
2024/01/09 00:33:15;;;;;;;13.87;4.87;;;;;;;-7.23;86.13;102986.09;6188298;23;20016;-86
2024/01/09 00:35:42;;;;;;;13.67;5.47;;;;;;;-7.25;86.71;102987.59;6190443;23;20095;-86
2024/01/09 00:38:10;;;;;;;5.03;4.00;;;;;;;-7.26;86.76;102984.91;6215702;23;20024;-86
2024/01/09 00:40:36;;;;;;;6.53;4.47;;;;;;;-7.25;87.16;102991.78;6191078;23;20345;-87
2024/01/09 00:43:03;;;;;;;11.40;4.97;;;;;;;-7.24;87.87;102984.31;6215491;23;20012;-85
2024/01/09 00:45:29;;;;;;;10.77;4.60;;;;;;;-7.26;87.99;102984.91;6189773;23;20157;-87
2024/01/09 00:47:56;;;;;;;11.27;6.03;;;;;;;-7.27;88.46;102983.09;6190471;23;20445;-87
2024/01/09 00:50:28;;;;;;;10.70;4.33;;;;;;;-7.29;88.34;102982.06;6191115;23;20107;-87
2024/01/09 00:52:57;;;;;;;9.90;4.90;;;;;;;-7.34;88.81;102981.56;6214810;23;20092;-85
2024/01/09 00:55:23;;;;;;;10.37;4.57;;;;;;;-7.33;89.42;102983.38;6189755;23;20032;-86
2024/01/09 00:57:53;;;;;;;7.73;4.50;;;;;;;-7.31;89.65;102982.78;6190812;23;20028;-85
2024/01/09 01:00:20;;;;;;;11.50;5.43;;;;;;;-7.24;89.90;102980.88;6190461;23;20372;-85
2024/01/09 01:02:48;;;;;;;9.30;4.83;;;;;;;-7.29;89.53;102984.59;6188928;23;20012;-86
2024/01/09 01:05:16;;;;;;;8.93;4.63;;;;;;;-7.34;89.41;102982.50;6216027;23;20445;-86
2024/01/09 01:07:43;;;;;;;11.73;5.20;;;;;;;-7.36;89.94;102986.50;6215425;23;20016;-87
2024/01/09 01:10:12;;;;;;;11.07;5.03;;;;;;;-7.31;90.20;102990.41;6190686;23;20446;-87
2024/01/09 01:12:44;;;;;;;12.57;6.17;;;;;;;-7.36;90.27;102986.50;6189365;23;20471;-85
2024/01/09 01:15:13;;;;;;;7.17;4.50;;;;;;;-7.38;90.71;102990.56;6191562;23;20525;-87
2024/01/09 01:17:39;;;;;;;14.30;5.67;;;;;;;-7.41;90.96;102991.88;6216448;23;20024;-87
2024/01/09 01:20:07;;;;;;;11.03;6.10;;;;;;;-7.43;91.16;103001.91;6191894;23;20024;-88
2024/01/09 01:22:36;;;;;;;10.27;5.43;;;;;;;-7.44;91.79;103004.28;6189209;23;20475;-86
2024/01/09 01:25:03;;;;;;;9.57;6.00;;;;;;;-7.48;92.02;103003.97;6190865;23;20349;-86
2024/01/09 01:27:30;;;;;;;10.77;5.20;;;;;;;-7.48;92.11;103008.19;6216004;23;20024;-86
2024/01/09 01:29:57;;;;;;;10.97;5.10;;;;;;;-7.47;93.56;103012.50;6190418;23;20073;-86
2024/01/09 01:32:23;;;;;;;7.97;4.87;;;;;;;-7.46;93.00;103006.66;6190872;23;20016;-86
2024/01/09 01:34:51;;;;;;;10.87;5.40;;;;;;;-7.48;93.01;103005.63;6216062;23;20016;-86
2024/01/09 01:37:18;;;;;;;11.13;5.87;;;;;;;-7.49;93.35;103009.81;6191692;23;20111;-87
2024/01/09 01:39:45;;;;;;;9.30;5.03;;;;;;;-7.51;93.46;103016.41;6191311;23;20434;-86
2024/01/09 01:42:14;;;;;;;8.83;5.23;;;;;;;-7.51;94.00;103024.03;6187293;23;20734;-87
2024/01/09 01:44:44;;;;;;;11.47;5.30;;;;;;;-7.51;93.70;103025.66;6189799;23;20035;-86
2024/01/09 01:47:13;;;;;;;10.07;5.03;;;;;;;-7.50;93.50;103025.81;6215942;23;20032;-86
2024/01/09 01:49:42;;;;;;;10.03;4.63;;;;;;;-7.52;93.60;103023.84;6189466;23;20020;-85
2024/01/09 01:52:09;;;;;;;12.20;4.70;;;;;;;-7.50;93.78;103025.81;6215878;23;20012;-85
2024/01/09 01:54:40;;;;;;;14.20;5.30;;;;;;;-7.51;93.90;103029.13;6190393;23;20024;-87
2024/01/09 01:57:08;;;;;;;8.23;4.70;;;;;;;-7.50;93.59;103020.72;6190130;23;20027;-85
2024/01/09 01:59:38;;;;;;;9.73;5.80;;;;;;;-7.56;93.96;103024.28;6190420;23;20026;-87
2024/01/09 02:02:06;;;;;;;10.57;4.53;;;;;;;-7.61;94.03;103033.09;6213245;23;20468;-86
2024/01/09 02:04:35;;;;;;;7.67;4.70;;;;;;;-7.65;94.42;103030.22;6190826;23;20024;-87
2024/01/09 02:07:05;;;;;;;10.93;5.23;;;;;;;-7.68;94.46;103034.09;6215565;23;20099;-85
2024/01/09 02:09:31;;;;;;;8.10;4.80;;;;;;;-7.72;94.80;103027.78;6191689;23;20024;-86
2024/01/09 02:11:59;;;;;;;10.23;5.43;;;;;;;-7.70;94.62;103028.84;6215908;23;20013;-86
2024/01/09 02:14:28;;;;;;;9.37;4.60;;;;;;;-7.77;94.80;103033.16;6191948;23;20047;-85
2024/01/09 02:16:54;;;;;;;7.70;5.40;;;;;;;-7.83;94.91;103031.78;6190650;23;20020;-86
2024/01/09 02:19:24;;;;;;;6.43;4.53;;;;;;;-7.89;96.11;103020.06;6191915;23;20497;-85
2024/01/09 02:21:54;;;;;;;7.17;4.23;;;;;;;-7.87;96.51;103018.59;6217082;23;20035;-87
2024/01/09 02:24:20;;;;;;;10.03;4.43;;;;;;;-7.93;97.47;103020.50;6192031;23;20086;-87
2024/01/09 02:27:10;;;;;;;10.00;4.53;;;;;;;-7.92;97.98;103019.75;6217566;23;20077;-85
2024/01/09 02:29:46;;;;;;;11.63;5.30;;;;;;;-7.93;98.28;103023.91;6219156;23;20052;-87
2024/01/09 02:32:13;;;;;;;7.60;4.27;;;;;;;-7.87;98.90;103021.13;6217369;23;20020;-86
2024/01/09 02:34:42;;;;;;;9.00;4.67;;;;;;;-7.87;98.81;103021.13;6192219;23;20051;-86
2024/01/09 02:37:08;;;;;;;8.00;4.67;;;;;;;-7.87;99.14;103014.41;6191146;23;20463;-84
2024/01/09 02:39:35;;;;;;;12.03;5.07;;;;;;;-7.93;99.61;103012.88;6193486;23;20034;-86
2024/01/09 02:42:02;;;;;;;14.00;4.67;;;;;;;-7.93;99.19;103016.28;6216214;23;20088;-86
2024/01/09 02:44:29;;;;;;;9.50;4.93;;;;;;;-7.90;99.40;103011.56;6217256;23;20028;-85
2024/01/09 02:46:58;;;;;;;11.37;4.93;;;;;;;-7.94;99.78;103009.41;6216834;23;20346;-86
2024/01/09 02:49:25;;;;;;;10.13;4.90;;;;;;;-7.89;99.51;103009.91;6193408;23;20751;-86
2024/01/09 02:51:51;;;;;;;9.17;5.10;;;;;;;-7.89;99.15;103009.91;6192064;23;20020;-87
2024/01/09 02:54:18;;;;;;;8.17;5.33;;;;;;;-7.95;99.27;103005.09;6191946;23;20128;-87
2024/01/09 02:56:45;;;;;;;9.73;5.23;;;;;;;-8.01;100.00;103006.97;6218301;23;20106;-85
2024/01/09 02:59:14;;;;;;;12.80;5.10;;;;;;;-7.99;100.00;103006.41;6191798;23;20020;-86
2024/01/09 03:01:43;;;;;;;9.67;5.20;;;;;;;-7.99;100.00;103005.47;6217392;23;20023;-85
2024/01/09 03:04:12;;;;;;;13.30;4.90;;;;;;;-7.98;100.00;103009.84;6217780;23;20020;-86
2024/01/09 03:06:38;;;;;;;6.93;4.43;;;;;;;-8.00;100.00;102996.97;6242295;23;20020;-87
2024/01/09 03:09:11;;;;;;;8.93;4.43;;;;;;;-8.00;100.00;103011.34;6216118;23;20020;-87
2024/01/09 03:11:38;;;;;;;9.60;4.87;;;;;;;-8.04;100.00;103017.72;6192058;23;20020;-87
2024/01/09 03:14:04;;;;;;;8.67;4.00;;;;;;;-8.02;100.00;103010.25;6191933;23;20086;-87
2024/01/09 03:16:31;;;;;;;10.73;4.33;;;;;;;-8.00;100.00;103008.78;6190332;23;20058;-86
2024/01/09 03:18:58;;;;;;;6.03;4.67;;;;;;;-8.01;100.00;103010.41;6190794;23;20097;-87
2024/01/09 03:21:24;;;;;;;8.47;4.33;;;;;;;-8.02;100.00;103012.81;6190976;23;20016;-87
2024/01/09 03:24:03;;;;;;;;;;;;;;;;;;;;;
2024/01/09 03:26:30;;;;;;;14.67;7.03;;;;;;;-8.03;100.00;103011.91;6217688;23;20020;-86
2024/01/09 03:28:58;;;;;;;11.33;5.27;;;;;;;-8.03;100.00;103009.38;6216576;23;20020;-85
2024/01/09 03:31:27;;;;;;;7.13;4.63;;;;;;;-8.01;100.00;103006.97;6215813;23;20030;-89
2024/01/09 03:33:57;;;;;;;13.47;5.27;;;;;;;-8.07;100.00;103011.41;6216463;23;20393;-85
2024/01/09 03:36:26;;;;;;;9.50;5.60;;;;;;;-8.09;100.00;103011.25;6192835;23;20016;-85
2024/01/09 03:38:55;;;;;;;9.07;5.37;;;;;;;-8.12;100.00;103003.34;6216375;23;20158;-85
2024/01/09 03:41:24;;;;;;;11.30;4.93;;;;;;;-8.14;100.00;103013.31;6216083;23;20049;-85
2024/01/09 03:43:53;;;;;;;11.97;5.97;;;;;;;-8.12;100.00;103010.97;6216300;23;20028;-87
2024/01/09 03:46:20;;;;;;;9.17;5.50;;;;;;;-8.14;100.00;103008.22;6189730;23;20024;-87
2024/01/09 03:48:49;;;;;;;9.90;5.00;;;;;;;-8.14;100.00;103004.78;6217159;23;20084;-87
2024/01/09 03:51:19;;;;;;;7.10;4.30;;;;;;;-8.09;100.00;103007.84;6191124;23;20345;-86
2024/01/09 03:53:46;;;;;;;8.07;4.53;;;;;;;-8.16;100.00;103006.25;6216558;23;20016;-86
2024/01/09 03:56:13;;;;;;;8.87;4.97;;;;;;;-8.17;100.00;103007.91;6215468;23;20027;-85
2024/01/09 03:58:41;;;;;;;8.80;4.80;;;;;;;-8.19;100.00;103004.31;6216825;23;20042;-86
2024/01/09 04:01:08;;;;;;;10.27;5.53;;;;;;;-8.15;100.00;103010.63;6191065;23;20388;-86
2024/01/09 04:03:35;;;;;;;9.37;4.33;;;;;;;-8.17;100.00;103007.03;6191904;23;20016;-87
2024/01/09 04:06:05;;;;;;;7.63;4.13;;;;;;;-8.21;100.00;103007.41;6190602;23;20020;-86
2024/01/09 04:08:32;;;;;;;11.73;4.53;;;;;;;-8.22;100.00;103001.44;6217469;23;20078;-87
2024/01/09 04:10:58;;;;;;;7.30;3.73;;;;;;;-8.17;100.00;103004.50;6216403;23;20820;-86
2024/01/09 04:13:25;;;;;;;11.20;4.60;;;;;;;-8.21;100.00;102999.78;6191766;23;20438;-87
2024/01/09 04:15:52;;;;;;;10.63;4.40;;;;;;;-8.23;100.00;102997.09;6215206;23;20026;-88
2024/01/09 04:18:18;;;;;;;6.17;4.07;;;;;;;-8.29;100.00;102993.03;6216181;23;20024;-86
2024/01/09 04:20:46;;;;;;;13.00;5.93;;;;;;;-8.24;100.00;102994.41;6191250;23;20024;-87
2024/01/09 04:23:13;;;;;;;8.40;4.50;;;;;;;-8.26;100.00;102991.72;6190997;23;20023;-85
2024/01/09 04:25:39;;;;;;;11.27;4.73;;;;;;;-8.25;100.00;102996.06;6189835;23;20023;-87
2024/01/09 04:28:06;;;;;;;9.57;5.07;;;;;;;-8.31;100.00;102991.22;6191331;23;20070;-87
2024/01/09 04:30:33;;;;;;;7.83;4.17;;;;;;;-8.30;100.00;102987.06;6189782;23;20031;-87
2024/01/09 04:32:59;;;;;;;8.97;4.83;;;;;;;-8.28;100.00;102987.22;6215058;23;20016;-85
2024/01/09 04:35:29;;;;;;;9.53;4.70;;;;;;;-8.34;100.00;102980.75;6214653;23;20024;-88
2024/01/09 04:38:05;;;;;;;11.97;4.60;;;;;;;-8.30;100.00;102984.50;6190997;23;20020;-87
2024/01/09 04:40:35;;;;;;;9.00;4.00;;;;;;;-8.34;100.00;102984.94;6216880;23;20074;-86
2024/01/09 04:43:04;;;;;;;13.60;4.97;;;;;;;-8.32;100.00;102991.06;6189731;23;20362;-86
2024/01/09 04:45:34;;;;;;;10.23;5.47;;;;;;;-8.35;100.00;102993.28;6189889;23;20043;-85
2024/01/09 04:48:03;;;;;;;8.77;4.47;;;;;;;-8.39;100.00;102989.53;6190520;23;20028;-87
2024/01/09 04:50:31;;;;;;;8.30;4.17;;;;;;;-8.31;100.00;102985.25;6191358;23;20499;-87
2024/01/09 04:53:06;;;;;;;5.87;3.60;;;;;;;-8.29;100.00;102985.41;6191528;23;20024;-86
2024/01/09 04:55:32;;;;;;;9.20;5.03;;;;;;;-8.32;100.00;102991.97;6191519;23;20031;-86
2024/01/09 04:58:02;;;;;;;12.40;5.37;;;;;;;-8.49;100.00;102985.13;6215456;23;20226;-87
2024/01/09 05:00:34;;;;;;;14.87;5.13;;;;;;;-8.44;100.00;102988.13;6216430;23;20127;-88
2024/01/09 05:03:01;;;;;;;8.47;4.70;;;;;;;-8.43;100.00;102989.94;6215432;23;20023;-86
2024/01/09 05:05:30;;;;;;;5.67;4.37;;;;;;;-8.44;100.00;102989.78;6215521;23;20210;-87
2024/01/09 05:08:04;;;;;;;13.60;4.87;;;;;;;-8.44;100.00;102982.16;6192012;23;20031;-88
2024/01/09 05:10:33;;;;;;;8.43;4.67;;;;;;;-8.43;100.00;102984.88;6212810;23;20130;-87
2024/01/09 05:13:03;;;;;;;9.97;4.33;;;;;;;-8.40;100.00;102990.25;6189755;23;20058;-86
2024/01/09 05:15:29;;;;;;;10.67;5.23;;;;;;;-8.42;100.00;102985.75;6215335;23;20384;-88
2024/01/09 05:18:05;;;;;;;9.93;4.90;;;;;;;-8.40;100.00;102989.38;6216890;23;20026;-86
2024/01/09 05:20:34;;;;;;;8.83;4.27;;;;;;;-8.31;100.00;102987.78;6191011;23;20023;-87
2024/01/09 05:23:02;;;;;;;9.20;4.97;;;;;;;-8.35;100.00;102991.63;6240329;23;20016;-85
2024/01/09 05:25:28;;;;;;;7.70;4.40;;;;;;;-8.36;100.00;102994.91;6190352;23;20070;-89
2024/01/09 05:27:55;;;;;;;10.43;4.43;;;;;;;-8.35;100.00;102989.09;6191453;23;20023;-85
2024/01/09 05:30:25;;;;;;;9.93;5.03;;;;;;;-8.41;100.00;102993.53;6214337;23;20039;-86
2024/01/09 05:32:52;;;;;;;11.13;5.27;;;;;;;-8.39;100.00;102993.72;6216169;23;20426;-87
2024/01/09 05:35:18;;;;;;;9.50;5.17;;;;;;;-8.41;100.00;102996.06;6191748;23;20027;-88
2024/01/09 05:37:45;;;;;;;11.70;5.53;;;;;;;-8.42;100.00;102990.81;6216853;23;20020;-89
2024/01/09 05:40:15;;;;;;;8.40;3.90;;;;;;;-8.41;100.00;102992.63;6193947;23;20023;-89
2024/01/09 05:42:43;;;;;;;10.20;4.33;;;;;;;-8.50;100.00;102985.88;6219372;23;20433;-84
2024/01/09 05:45:14;;;;;;;10.83;4.63;;;;;;;-8.44;100.00;102994.88;6193510;23;20031;-86
2024/01/09 05:47:41;;;;;;;9.07;4.43;;;;;;;-8.43;100.00;102989.03;6217633;23;20058;-86
2024/01/09 05:50:11;;;;;;;9.77;5.40;;;;;;;-8.46;100.00;102992.16;6192453;23;20028;-88
2024/01/09 05:52:39;;;;;;;9.67;5.27;;;;;;;-8.50;100.00;103000.22;6191742;23;20047;-87
2024/01/09 05:55:08;;;;;;;12.83;5.47;;;;;;;-8.52;100.00;102992.44;6216204;23;20513;-84
2024/01/09 05:57:35;;;;;;;10.03;5.33;;;;;;;-8.48;100.00;102997.09;6217877;23;20495;-88
2024/01/09 06:00:05;;;;;;;14.53;4.83;;;;;;;-8.50;100.00;103000.22;6213181;23;20023;-84
2024/01/09 06:02:32;;;;;;;9.73;4.07;;;;;;;-8.52;100.00;103006.78;6214200;23;20035;-85
2024/01/09 06:04:59;;;;;;;12.97;5.23;;;;;;;-8.44;100.00;103005.03;6189623;23;20376;-87
2024/01/09 06:07:25;;;;;;;10.33;5.63;;;;;;;-8.58;100.00;103001.94;6190265;23;20016;-86
2024/01/09 06:09:52;;;;;;;8.93;5.30;;;;;;;-8.49;100.00;103002.91;6190706;23;20028;-88
2024/01/09 06:12:21;;;;;;;8.37;4.83;;;;;;;-8.46;100.00;103007.41;6189111;23;20023;-86
2024/01/09 06:14:48;;;;;;;6.33;4.30;;;;;;;-8.53;100.00;103004.97;6189996;23;20062;-86
2024/01/09 06:17:14;;;;;;;10.30;5.67;;;;;;;-8.47;100.00;103003.09;6189385;23;20023;-87
2024/01/09 06:19:44;;;;;;;8.93;4.90;;;;;;;-8.46;100.00;102994.72;6189834;23;20028;-87
2024/01/09 06:22:12;;;;;;;9.33;5.43;;;;;;;-8.50;100.00;103003.66;6189904;23;20077;-86
2024/01/09 06:24:39;;;;;;;11.50;4.97;;;;;;;-8.62;100.00;102999.81;6189604;23;20112;-86
2024/01/09 06:27:06;;;;;;;11.23;5.77;;;;;;;-8.54;100.00;103003.16;6190317;23;20020;-87
2024/01/09 06:29:36;;;;;;;12.17;6.20;;;;;;;-8.52;100.00;103011.88;6214737;23;20115;-86
2024/01/09 06:32:06;;;;;;;7.93;4.47;;;;;;;-8.48;100.00;103008.91;6192411;23;20070;-86
2024/01/09 06:34:34;;;;;;;12.47;5.07;;;;;;;-8.58;100.00;103006.13;6214155;23;20020;-87
2024/01/09 06:37:02;;;;;;;8.97;4.90;;;;;;;-8.54;100.00;103009.16;6214262;23;20078;-85
2024/01/09 06:39:29;;;;;;;8.43;5.57;;;;;;;-8.48;100.00;103016.53;6190687;23;20111;-86
2024/01/09 06:41:56;;;;;;;9.17;6.07;;;;;;;-8.50;100.00;103012.91;6180269;23;20513;-85
2024/01/09 06:44:22;;;;;;;10.23;5.00;;;;;;;-8.52;100.00;103014.41;6184955;23;20024;-85
2024/01/09 06:46:51;;;;;;;10.63;6.57;;;;;;;-8.52;100.00;103011.88;6188388;23;20023;-85
2024/01/09 06:49:18;;;;;;;8.07;5.10;;;;;;;-8.55;100.00;103014.06;6188833;23;20080;-86
2024/01/09 06:51:45;;;;;;;9.50;5.10;;;;;;;-8.53;100.00;103015.13;6188165;23;20024;-89
2024/01/09 06:54:12;;;;;;;11.87;5.07;;;;;;;-8.52;100.00;103015.28;6189030;23;20074;-86
2024/01/09 06:56:44;;;;;;;8.20;4.73;;;;;;;-8.50;100.00;103005.28;6191471;23;20082;-88
2024/01/09 06:59:11;;;;;;;10.67;5.33;;;;;;;-8.52;100.00;103017.84;6192732;23;20089;-86
2024/01/09 07:01:38;;;;;;;12.50;5.67;;;;;;;-8.54;100.00;103015.88;6192043;23;20024;-88
2024/01/09 07:04:08;;;;;;;11.90;6.13;;;;;;;-8.53;100.00;103013.47;6191440;23;20109;-88
2024/01/09 07:06:38;;;;;;;13.67;5.30;;;;;;;-8.52;100.00;103022.03;6194061;23;20024;-87
2024/01/09 07:09:08;;;;;;;7.73;4.67;;;;;;;-8.55;100.00;103012.44;6194811;23;20586;-86
2024/01/09 07:11:35;;;;;;;8.10;4.33;;;;;;;-8.48;100.00;103008.91;6220500;23;20020;-88
2024/01/09 07:14:02;;;;;;;10.33;5.70;;;;;;;-8.47;100.00;103020.88;6219700;23;20518;-87
2024/01/09 07:16:31;;;;;;;7.70;5.43;;;;;;;-8.46;100.00;103024.31;6191497;23;20031;-90
2024/01/09 07:18:58;;;;;;;8.77;5.30;;;;;;;-8.45;100.00;103024.44;6194198;23;20026;-87
2024/01/09 07:21:25;;;;;;;10.23;5.60;;;;;;;-8.43;100.00;103022.03;6192796;23;20024;-88
2024/01/09 07:23:55;;;;;;;11.17;5.93;;;;;;;-8.48;100.00;103016.53;6217458;23;20019;-89
2024/01/09 07:26:21;;;;;;;10.13;4.67;;;;;;;-8.39;100.00;103024.19;6217900;23;20030;-86
2024/01/09 07:28:48;;;;;;;10.90;4.30;;;;;;;-8.46;100.00;103025.19;6193397;23;20332;-89
2024/01/09 07:31:15;;;;;;;9.73;4.50;;;;;;;-8.44;100.00;103032.97;6216514;23;20020;-86
2024/01/09 07:33:41;;;;;;;15.33;6.77;;;;;;;-8.50;100.00;103033.22;6217831;23;20016;-90
2024/01/09 07:36:09;;;;;;;11.13;5.97;;;;;;;-8.50;100.00;103033.22;6215004;23;20027;-87
2024/01/09 07:38:35;;;;;;;9.97;5.20;;;;;;;-8.53;100.00;103045.63;6217943;23;20039;-85
2024/01/09 07:41:02;;;;;;;17.80;6.20;;;;;;;-8.57;100.00;103036.75;6191594;23;20103;-88
2024/01/09 07:43:29;;;;;;;12.83;4.63;;;;;;;-8.52;100.00;103037.25;6218202;23;20026;-88
2024/01/09 07:45:56;;;;;;;14.83;6.20;;;;;;;-8.55;100.00;103047.06;6215553;23;20020;-89
2024/01/09 07:48:25;;;;;;;12.77;6.07;;;;;;;-8.51;100.00;103055.19;6192848;23;20495;-89
2024/01/09 07:50:52;;;;;;;10.67;6.00;;;;;;;-8.46;100.00;103049.69;6192893;23;20078;-89
2024/01/09 07:53:24;;;;;;;10.83;5.37;;;;;;;-8.47;100.00;103061.50;6193416;23;20068;-87
2024/01/09 07:55:51;;;;;;;11.53;6.17;;;;;;;-8.41;100.00;103053.59;6245291;23;20024;-87
2024/01/09 07:58:18;;;;;;;12.03;5.67;;;;;;;-8.42;100.00;103060.34;6220639;23;20031;-86
2024/01/09 08:00:45;;;;;;;10.57;5.27;;;;;;;-8.41;100.00;103064.66;6194831;23;20051;-87
2024/01/09 08:03:13;;;;;;;11.50;5.80;;;;;;;-8.36;100.00;103063.50;6217610;23;20024;-87
2024/01/09 08:05:40;;;;;;;11.87;5.37;;;;;;;-8.46;100.00;103065.84;6216905;23;20064;-88
2024/01/09 08:08:10;;;;;;;11.17;4.53;;;;;;;-8.46;100.00;103073.44;6193160;23;20090;-86
2024/01/09 08:10:41;;;;;;;14.63;6.47;;;;;;;-8.49;100.00;103068.06;6217447;23;20030;-89
2024/01/09 08:13:10;;;;;;;11.10;5.83;;;;;;;-8.45;100.00;103067.59;6218234;23;20023;-86
2024/01/09 08:15:37;;;;;;;15.97;4.87;;;;;;;-8.46;100.00;103059.88;6191778;23;20015;-88
2024/01/09 08:18:03;;;;;;;13.13;6.10;;;;;;;-8.44;100.00;103066.00;6191265;23;20024;-90
2024/01/09 08:20:33;;;;;;;13.90;5.93;;;;;;;-8.41;100.00;103056.13;6218106;23;20119;-89
2024/01/09 08:23:02;;;;;;;10.40;6.00;;;;;;;-8.43;100.00;103055.97;6192659;23;20496;-88
2024/01/09 08:25:29;;;;;;;9.23;5.33;;;;;;;-8.43;100.00;103055.97;6194450;23;20040;-87
2024/01/09 08:27:55;;;;;;;10.90;5.50;;;;;;;-8.46;100.00;103055.66;6193480;23;20643;-88
2024/01/09 08:30:22;;;;;;;11.20;5.73;;;;;;;-8.34;100.00;103056.06;6218530;23;20020;-87
2024/01/09 08:32:49;;;;;;;10.03;5.50;;;;;;;-8.39;100.00;103059.75;6218871;23;20480;-87
2024/01/09 08:35:15;;;;;;;14.27;5.90;;;;;;;-8.39;100.00;103059.75;6217939;23;20012;-87
2024/01/09 08:37:44;;;;;;;11.90;5.97;;;;;;;-8.36;100.00;103062.63;6193361;23;20024;-88
2024/01/09 08:40:11;;;;;;;10.03;5.97;;;;;;;-8.32;100.00;103060.59;6192001;23;20031;-86
2024/01/09 08:42:38;;;;;;;14.00;5.90;;;;;;;-8.31;100.00;103064.00;6191460;23;20031;-87
2024/01/09 08:45:05;;;;;;;14.43;5.83;;;;;;;-8.32;100.00;103052.97;6191476;23;20024;-85
2024/01/09 08:47:32;;;;;;;10.40;5.33;;;;;;;-8.26;100.00;103060.31;6190131;23;20126;-84
2024/01/09 08:49:58;;;;;;;9.73;5.03;;;;;;;-8.22;100.00;103064.09;6191261;23;20119;-87
2024/01/09 08:52:25;;;;;;;15.43;6.37;;;;;;;-8.18;100.00;103069.66;6191223;23;20070;-85
2024/01/09 08:54:54;;;;;;;12.67;6.03;;;;;;;-8.16;100.00;103073.25;6191939;23;20016;-86
2024/01/09 08:57:21;;;;;;;12.73;6.43;;;;;;;-8.21;100.00;103068.41;6216643;23;20023;-85
2024/01/09 08:59:52;;;;;;;7.33;5.53;;;;;;;-8.14;100.00;103068.34;6190922;23;20055;-86
2024/01/09 09:02:18;;;;;;;10.43;5.97;;;;;;;-8.15;100.00;103077.63;6217722;23;20040;-86
2024/01/09 09:04:47;;;;;;;14.70;5.60;;;;;;;-8.14;100.00;103081.03;6191799;23;20066;-86
2024/01/09 09:07:14;;;;;;;12.40;6.40;;;;;;;-8.19;100.00;103067.84;6191569;23;20408;-87
2024/01/09 09:09:42;;;;;;;16.63;6.23;;;;;;;-8.11;100.00;103075.38;6193463;23;20039;-85
2024/01/09 09:12:14;;;;;;;13.70;5.63;;;;;;;-8.02;100.00;103077.22;6191753;23;20050;-85
2024/01/09 09:14:41;;;;;;;11.37;6.30;;;;;;;-7.95;100.00;103076.28;6192451;23;20066;-86
2024/01/09 09:17:17;;;;;;;12.87;5.73;;;;;;;-7.86;100.00;103083.94;6216717;23;20495;-87
2024/01/09 09:19:47;;;;;;;9.70;5.90;;;;;;;-7.89;100.00;103076.00;6221082;23;20436;-85
2024/01/09 09:22:14;;;;;;;9.83;6.33;;;;;;;-7.91;100.00;103080.00;6191331;23;20087;-86
2024/01/09 09:24:42;;;;;;;11.60;5.60;;;;;;;-7.87;100.00;103072.88;6216315;23;20016;-85
2024/01/09 09:27:09;;;;;;;12.90;6.57;;;;;;;-7.87;100.00;103079.63;6191328;23;20047;-85
2024/01/09 09:29:39;;;;;;;14.17;5.77;;;;;;;-7.77;100.00;103076.38;6215291;23;20027;-86
2024/01/09 09:32:07;;;;;;;9.63;5.63;;;;;;;-7.77;100.00;103076.38;6189515;23;20023;-84
2024/01/09 09:34:39;;;;;;;15.87;6.60;;;;;;;-7.84;100.00;103078.28;6188582;23;20027;-86
2024/01/09 09:37:06;;;;;;;11.53;5.30;;;;;;;-7.71;100.00;103069.41;6213463;23;20042;-86
2024/01/09 09:39:35;;;;;;;15.83;6.40;;;;;;;-7.60;97.77;103065.41;6219032;23;20031;-88
2024/01/09 09:42:02;;;;;;;11.50;5.97;;;;;;;-7.60;96.72;103063.78;6195977;23;20032;-86
2024/01/09 09:44:29;;;;;;;10.63;6.43;;;;;;;-7.51;96.33;103067.28;6218246;23;20054;-87
2024/01/09 09:46:56;;;;;;;9.07;5.17;;;;;;;-7.53;96.06;103062.78;6197229;23;20612;-87
2024/01/09 09:49:23;;;;;;;14.87;7.23;;;;;;;-7.44;95.94;103052.63;6196070;23;20031;-86
2024/01/09 09:52:00;;;;;;;11.60;5.37;;;;;;;-7.36;95.98;103049.25;6222502;23;20075;-88
2024/01/09 09:54:26;;;;;;;13.53;6.43;;;;;;;-7.27;94.92;103050.19;6195807;23;20091;-89
2024/01/09 09:56:55;;;;;;;11.67;5.13;;;;;;;-7.26;94.11;103049.44;6222986;23;20084;-89
2024/01/09 09:59:24;;;;;;;10.40;5.70;;;;;;;-7.21;93.44;103045.72;6222109;23;20106;-87
2024/01/09 10:01:51;;;;;;;12.40;5.97;;;;;;;-7.23;93.93;103041.22;6221928;23;20067;-88
2024/01/09 10:04:43;;;;;;;14.93;6.37;;;;;;;-7.17;93.00;103044.34;6217343;23;20074;-87
2024/01/09 10:07:13;;;;;;;;;;;;;;;-7.10;92.64;103043.31;6194621;23;20020;-87
2024/01/09 10:09:46;;;;;;;13.13;6.97;;;;;;;-7.07;91.72;103043.66;6219932;23;20304;-86
2024/01/09 10:12:13;;;;;;;16.35;6.43;;;;;;;-7.06;91.58;103043.81;6193936;23;20094;-85
2024/01/09 10:15:17;;;;;;;11.67;6.17;;;;;;;-6.98;91.34;103035.28;6193872;23;20039;-87
2024/01/09 10:17:44;;;;;;;12.33;5.77;;;;;;;-6.93;91.29;103042.50;6221363;23;20051;-86
2024/01/09 10:20:14;;;;;;;8.87;5.43;;;;;;;-6.96;90.07;103039.63;6196097;23;20071;-88
2024/01/09 10:22:45;;;;;;;14.50;6.13;;;;;;;-7.01;90.17;103041.75;6219522;23;20400;-87
2024/01/09 10:25:13;;;;;;;11.47;5.83;;;;;;;-6.92;90.92;103041.75;6219285;23;20046;-86
2024/01/09 10:27:41;;;;;;;8.77;5.73;;;;;;;-6.84;90.53;103041.78;6194374;23;20054;-86
2024/01/09 10:30:10;;;;;;;10.00;6.33;;;;;;;-6.76;90.39;103032.34;6194013;23;20094;-86
2024/01/09 10:32:43;;;;;;;12.80;7.13;;;;;;;-6.69;90.27;103028.75;6218612;23;20016;-86
2024/01/09 10:35:14;;;;;;;11.63;5.87;;;;;;;-6.61;89.67;103029.53;6220136;23;20019;-85
2024/01/09 10:37:43;;;;;;;16.47;6.23;;;;;;;-6.59;88.52;103033.13;6220287;23;20047;-87
2024/01/09 10:40:12;;;;;;;10.63;5.60;;;;;;;-6.63;87.87;103031.94;6221013;23;20032;-86
2024/01/09 10:42:46;;;;;;;11.87;6.37;;;;;;;-6.64;87.12;103030.13;6220968;23;20066;-86
2024/01/09 10:45:19;;;;;;;14.93;6.77;;;;;;;-6.64;87.01;103022.47;6197907;23;20024;-86
2024/01/09 10:47:46;;;;;;;12.50;5.73;;;;;;;-6.65;86.58;103015.56;6201110;23;20078;-86
2024/01/09 10:50:16;;;;;;;9.80;5.97;;;;;;;-6.57;86.14;103012.16;6199621;23;20019;-85
2024/01/09 10:52:51;;;;;;;12.80;6.23;;;;;;;-6.64;86.26;103004.66;6198419;23;20034;-86
2024/01/09 10:55:27;;;;;;;11.05;7.07;;;;;;;-6.44;86.50;103009.19;6199329;23;20046;-87
2024/01/09 10:57:54;;;;;;;9.63;6.07;;;;;;;-6.39;85.88;103002.84;6224443;23;20090;-86
2024/01/09 11:00:28;;;;;;;12.20;6.00;;;;;;;-6.35;85.19;103006.59;6223133;23;20024;-86
2024/01/09 11:02:54;;;;;;;12.82;6.15;;;;;;;-6.29;83.85;103008.88;6198658;23;20020;-86
2024/01/09 11:05:21;;;;;;;12.67;7.00;;;;;;;-6.33;82.68;103008.56;6222693;23;20008;-86
2024/01/09 11:07:54;;;;;;;15.57;6.70;;;;;;;-6.27;83.42;102998.06;6224418;23;20362;-87
2024/01/09 11:10:23;;;;;;;15.57;6.50;;;;;;;-6.23;83.42;103002.72;6197981;23;20074;-84
2024/01/09 11:12:54;;;;;;;12.23;7.07;;;;;;;-6.28;81.43;103000.44;6222428;23;20028;-86
2024/01/09 11:15:33;;;;;;;15.20;6.17;;;;;;;-6.32;81.31;103001.81;6197402;23;20051;-86
2024/01/09 11:18:16;;;;;;;13.73;5.93;;;;;;;-6.30;81.73;102996.88;6200039;23;20055;-86
2024/01/09 11:20:44;;;;;;;10.10;6.43;;;;;;;-6.34;79.91;102996.53;6223638;23;20020;-88
2024/01/09 11:23:14;;;;;;;11.40;5.33;;;;;;;-6.25;79.44;102986.34;6224723;23;20262;-87